Airfield :
LOGIN :

Register | Disclaimer

   EN    FR    IT 

 










Legend :    VFR   Marginal VFR   IFR   Intensive IFR   Very Intensive IFR
Visi :
Ceiling :
>= 8 km
>= 3000ft
5 to 8 km
1000 to 3000 ft
1500m to 5 km
500 to 1000 ft
800 to 1500m
200 to 500 ft
< 800m
< 200 ft
Symbols :   Thunderstorms  Fog  Heavy snow  Heavy precipitations  Wind > 20 kt
SIGMETs :     Misc.  Thunderstorms  Icing  Turbulence  Mountain Waves  Volcanic Ashes







- Airport Elevation : 10 ft
- IATA code : AAL


EKYT - Aalborg

CURRENT METAR :
  • 221520Z AUTO 25022KT 9999NDV -SHRA FEW022/// SCT031/// BKN040/// BKN055/// 12/09 Q1004 TEMPO 27025G35KT 3000 SHRAGS BKN020CB

EXPIRED METARs :
  • 221450Z AUTO 25021KT 9999NDV -SHRA FEW032/// SCT080/// 11/08 Q1004 TEMPO 27025G35KT 3000 SHRAGS BKN020CB
  • 221420Z AUTO 26022KT 9999NDV -SHRA FEW041/// BKN055/// 11/08 Q1005 RESHRA TEMPO 27025G35KT 3000 SHRAGS BKN020CB
  • 221352Z AUTO 27020G31KT 240V310 9999NDV SHRA FEW024/// SCT037/// BKN043/// BKN050/// 11/07 Q1005 TEMPO 27025G35KT 3000 SHRAGS BKN020CB
  • 221341Z AUTO 28013G28KT 9999NDV SHRA FEW033/// BKN043/// BKN055/// 10/08 Q1005 TEMPO 27025G35KT 3000 SHRAGS BKN020CB
  • 221332Z AUTO 28016G27KT 9999NDV -SHRA FEW037/// SCT043/// BKN050/// 11/08 Q1005 TEMPO 27025G35KT 3000 SHRAGS BKN020CB
  • 221320Z AUTO 29016G28KT 9999NDV -SHRA FEW028/// BKN045/// BKN065/// 11/07 Q1005 TEMPO 27025G35KT 3000 SHRA BKN020CB
  • 221316Z AUTO 29017G28KT 9999NDV -SHRA FEW028/// SCT043/// BKN050/// 10/07 Q1005 TEMPO 27025G35KT 3000 SHRA BKN020CB
  • 221303Z AUTO 29015G28KT 9999NDV -SHRA FEW024/// SCT043/// BKN050/// 11/08 Q1005 RESHRA TEMPO 27025G35KT 3000 SHRA BKN020CB
  • 221250Z AUTO 29016G27KT 9999NDV -SHRA FEW039/// SCT047/// BKN075/// 11/07 Q1005 TEMPO 27025G35KT 3000 SHRA BKN020CB
  • 221245Z AUTO 29015G27KT 9999NDV -SHRA FEW040/// SCT050/// BKN080/// 12/08 Q1005 TEMPO 27025G35KT 3000 SHRA BKN020CB
  • 221220Z AUTO 28018G29KT 9999NDV SHRA FEW032/// SCT046/// BKN070/// 11/07 Q1005 TEMPO 27025G35KT 3000 SHRA BKN020CB

TAF TAF EKYT
Valid from the 22 at 15:00 until the 23 at 12:00 UTC


221415Z 2215/2312 26015KT 9999 SCT030
TEMPO 2215/2218 27022G35KT 3000 SHRAGS BKN020CB
TEMPO 2218/2306 26015G27KT 4000 -SHRA SCT020CB
TEMPO 2310/2312 29015G25KT
No reported NOTAMs for that airfield.



MET'MAP, your aeronautical weather chart ! - Copyright ORBIFLY December 2007 - Disclaimer

ORBIFLY MET'MAP TEAM :

Programming & Development : Alexandra Zaïnal
Concept & Development : Baudouin d'Aumeries
Co-Development & Prog : Marc-Olivier Méhu
Technical & hardware support : Manuel Goepfert

Contact : metmap@orbifly.com




SOURCES & CREDITS :

   NOAA